ジャージー島 の空港の天気 - METARとTAF

ジャージー空港 ( EGJJ / JER ) - ジャージー島 ジャージー島
飛行場実況気象(Metar)
観測時間06/01 20:50 BST (06/01 19:50 UTC)
風向・風速東北東 6m/s
視程10km以上
天気現象
なし
気温19℃
湿度46%
気圧1019hPa
METAREGJJ 011950Z AUTO 06011KT 030V090 9999 NCD 19/07 Q1019
過去の天気等 Google飛行場航空写真 Wunderground天気予報

過去48時間のMETAR

飛行場予報(TAF)
発表時間: 6/01 17:55 BST (6/01 16:55 UTC)
予報対象時間: 1日19時 BST ~ 2日4時 BST
風向・風速北東 6m/s
視程10km以上
なし
TAF EGJJ 011655Z 0118/0203 05012KT CAVOK